Terminal Aerodrome Forecast
Issued by NWS Charleston, WV

Current Version | Previous Version | Graphics & Text | Print | Product List | Glossary On
Versions: 1 2 3 4 5 6 7 8 9 10 11 12 13 14 15 16 17 18 19 20 21 22 23 24 25 26 27 28 29 30 31
000
FTUS41 KRLX 250200 AAA
TAFBKW
TAF AMD
KBKW 250241Z 2503/2524 05004KT P6SM BKN250
     FM250500 07004KT P6SM BKN100
     FM251200 13006KT 6SM -SHRA BKN045
     FM251400 13009KT 4SM SHRA BR OVC035
     FM251600 13010G15KT 2SM SHRA BR OVC018
     FM251900 13011G16KT 4SM SHRA BR BKN020
     FM252100 15011G17KT P6SM BKN025=

USA.gov is the U.S. government's official web portal to all federal, state and local government web resources and services.